M I D A S
Marine Information and Data Acquisition System
Tripno 475 of the Zeeleeuw from 2003-01-17 07:44:18 to 2003-01-17 12:53:44
Back to CruiseResearch ActivitiesStationsMapUnderway DataData graphs

EquipmentUnitsComment
TimeDGPSUTC
LatitudeDGPSDM.mWGS84
LongitudeDGPSDM.mWGS84
TemperatureSBE03/SBE38deg celciusITS90
ConductivitySBE21S/mITS90
SalinitySBE21 Practical Salinity Units
ChlorophylAChelsea fluorimeterg/lCalibrated in Aceton
Missing or incorrect values are displayed as -999
Sea surface data collected by the RV Zeeleeuw from 2003-01-17 07:44:18 to 2003-01-17 12:53:44
Time Latitude Longitude Temperature Conductivity Salinity ChlorophylA
2003-01-17 07:45:24 51°13.665 2°55.816 6.713107 3.120331 27.172675  
2003-01-17 07:46:22 51°13.681 2°55.777 6.472879 2.230017 22.181488  
2003-01-17 07:47:23 51°13.734 2°55.766 5.700517 2.080741 20.811339  
2003-01-17 07:48:22 51°13.787 2°55.674 6.425795 1.668749 16.484199  
2003-01-17 07:49:23 51°13.864 2°55.58 5.607318 1.430307 14.000246  
2003-01-17 07:50:22 51°13.959 2°55.527 5.660032 1.698018 16.843154  
2003-01-17 07:51:22 51°14.06 2°55.466 5.705382 2.08925 21.050636  
2003-01-17 07:52:22 51°14.164 2°55.378 5.558027 2.28771 23.21381  
2003-01-17 07:53:22 51°14.257 2°55.259 5.951577 2.143452 21.668183  
2003-01-17 07:54:22 51°14.343 2°55.1 5.964414 2.107527 21.289273  
2003-01-17 07:55:22 51°14.441 2°54.893 6.461087 2.174022 22.023817  
2003-01-17 07:56:22 51°14.546 2°54.665 6.29914 2.545155 26.09461  
2003-01-17 07:57:23 51°14.664 2°54.434 6.602897 2.671884 27.50136  
2003-01-17 07:58:23 51°14.775 2°54.181 6.323777 2.714276 27.966994  
2003-01-17 07:59:22 51°14.856 2°53.905 6.550714 2.819167 29.126387  
2003-01-17 08:00:22 51°14.937 2°53.619 6.763184 2.885985 29.855238  
2003-01-17 08:01:24 51°15.024 2°53.328 6.823176 2.887564 29.866129  
2003-01-17 08:02:22 51°15.099 2°53.051 6.7175 2.910926 30.115293  
2003-01-17 08:03:22 51°15.179 2°52.762 6.827512 2.916083 30.156605  
2003-01-17 08:04:22 51°15.256 2°52.471 6.651332 2.926501 30.250726  
2003-01-17 08:05:23 51°15.334 2°52.175 6.878927 2.943129 30.422017  
2003-01-17 08:06:22 51°15.417 2°51.894 6.271264 2.95418 30.515098  
2003-01-17 08:07:23 51°15.386 2°51.594 6.060181 2.964178 30.6017  
2003-01-17 08:08:22 51°15.306 2°51.315 6.810512 2.979545 30.742094  
2003-01-17 08:09:22 51°15.234 2°51.027 6.60176 2.976808 30.707676  
2003-01-17 08:10:22 51°15.175 2°50.825 6.644168 2.973124 30.668133  
2003-01-17 08:11:22 51°15.118 2°50.667 6.643427 2.977861 30.722904  
2003-01-17 08:12:22 51°15.078 2°50.506 6.402538 2.966494 30.593414  
2003-01-17 08:13:22 51°15.027 2°50.375 6.490564 2.969546 30.62737  
2003-01-17 08:14:22 51°14.981 2°50.309 6.451374 2.983229 30.774352  
2003-01-17 08:15:24 51°14.951 2°50.264 6.526908 2.982913 30.773995  
2003-01-17 08:16:22 51°14.93 2°50.234 6.64812 2.982071 30.769261  
2003-01-17 08:17:23 51°14.916 2°50.222 6.648812 2.981439 30.761254  
2003-01-17 08:18:22 51°14.907 2°50.223 6.770779 2.981439 30.759634  
2003-01-17 08:19:22 51°14.903 2°50.234 6.769743 2.981545 30.757594  
2003-01-17 08:20:22 51°14.891 2°50.249 6.93212 2.980913 30.752018  
2003-01-17 08:21:24 51°14.865 2°50.257 6.997506 2.981018 30.757267  
2003-01-17 08:22:23 51°14.838 2°50.244 6.363839 2.982071 30.769261  
2003-01-17 08:23:22 51°14.814 2°50.216 6.568871 2.98186 30.765242  
2003-01-17 08:24:24 51°14.792 2°50.196 6.368157 2.98165 30.763653  
2003-01-17 08:25:22 51°14.772 2°50.197 6.346318 2.980703 30.749619  
2003-01-17 08:26:22 51°14.748 2°50.197 6.284036 2.98165 30.759603  
2003-01-17 08:27:22 51°14.712 2°50.183 6.766439 2.980387 30.753309  
2003-01-17 08:28:22 51°14.677 2°50.148 6.926709 2.980492 30.756129  
2003-01-17 08:29:22 51°14.647 2°50.1 6.758104 2.979019 30.741764  
2003-01-17 08:30:23 51°14.624 2°50.04 6.436008 2.974809 30.697828  
2003-01-17 08:31:24 51°14.603 2°49.976 6.320201 2.975335 30.703825  
2003-01-17 08:32:22 51°14.591 2°49.91 6.485115 2.976072 30.704134  
2003-01-17 08:33:22 51°14.583 2°49.832 6.368802 2.975124 30.690915  
2003-01-17 08:34:22 51°14.583 2°49.755 7.020547 2.978177 30.722456  
2003-01-17 08:35:24 51°14.589 2°49.683 6.744687 2.981124 30.750368  
2003-01-17 08:36:22 51°14.597 2°49.62 6.505322 2.982597 30.765537  
2003-01-17 08:37:22 51°14.61 2°49.553 7.033955 2.984281 30.779053  
2003-01-17 08:38:22 51°14.63 2°49.486 6.959315 2.984281 30.777432  
2003-01-17 08:39:24 51°14.655 2°49.421 6.564765 2.987965 30.811292  
2003-01-17 08:40:24 51°14.681 2°49.36 6.40224 2.989333 30.822823  
2003-01-17 08:41:22 51°14.711 2°49.306 6.936301 2.99007 30.827159  
2003-01-17 08:42:22 51°14.747 2°49.259 6.828251 2.995017 30.87376  
2003-01-17 08:43:22 51°14.788 2°49.222 6.716315 2.99849 30.902754  
2003-01-17 08:44:23 51°14.836 2°49.201 6.845098 2.999016 30.899812  
2003-01-17 08:45:22 51°14.887 2°49.209 7.013817 3.000911 30.915691  
2003-01-17 08:46:24 51°14.93 2°49.255 6.463217 3.007647 30.980167  
2003-01-17 08:47:22 51°14.959 2°49.311 6.995688 3.011542 31.013092  
2003-01-17 08:48:23 51°14.981 2°49.371 6.844753 3.0147 31.038433  
2003-01-17 08:49:22 51°15 2°49.434 6.809723 3.016278 31.050692  
2003-01-17 08:50:22 51°15.017 2°49.5 6.850368 3.018594 31.071329  
2003-01-17 08:51:24 51°15.035 2°49.57 6.602798 3.019015 31.077749  
2003-01-17 08:52:24 51°15.051 2°49.638 6.225473 3.015542 31.046384  
2003-01-17 08:53:22 51°15.068 2°49.703 6.826132 3.0127 31.022195  
2003-01-17 08:54:22 51°15.086 2°49.771 6.822437 3.0127 31.026267  
2003-01-17 08:55:22 51°15.103 2°49.839 6.898221 3.011858 31.020757  
2003-01-17 08:56:22 51°15.118 2°49.908 6.974456 3.009753 31.002498  
2003-01-17 08:57:22 51°15.132 2°49.979 7.014554 3.009332 31.003406  
2003-01-17 08:58:22 51°15.146 2°50.049 7.287833 3.009226 31.002207  
2003-01-17 08:59:22 51°15.16 2°50.115 6.797845 3.007648 30.989119  
2003-01-17 09:00:22 51°15.17 2°50.171 6.992592 3.005332 30.969267  
2003-01-17 09:01:22 51°15.178 2°50.226 4.86383 3.003543 30.953776  
2003-01-17 09:02:23 51°15.181 2°50.279 4.810953 3.001648 30.939523  
2003-01-17 09:03:22 51°15.187 2°50.318 4.89391 3.001543 30.929381  
2003-01-17 09:04:22 51°15.194 2°50.346 4.810546 3.000385 30.920263  
2003-01-17 09:05:22 51°15.202 2°50.37 4.811869 3.000069 30.91748  
2003-01-17 09:06:22 51°15.213 2°50.39 4.808054 3.00049 30.920648  
2003-01-17 09:07:24 51°15.228 2°50.408 4.815226 3.002279 30.941834  
2003-01-17 09:08:23 51°15.243 2°50.425 4.861442 3.001437 30.924119  
2003-01-17 09:09:22 51°15.258 2°50.446 4.856207 3.002174 30.934944  
2003-01-17 09:10:22 51°15.272 2°50.469 4.86012 3.002174 30.934944  
2003-01-17 09:11:22 51°15.287 2°50.492 4.818582 3.003121 30.945729  
2003-01-17 09:12:24 51°15.302 2°50.515 4.864186 3.003753 30.953732  
2003-01-17 09:13:22 51°15.316 2°50.535 4.82321 3.004069 30.951634  
2003-01-17 09:14:22 51°15.33 2°50.558 4.873791 3.005753 30.965924  
2003-01-17 09:15:23 51°15.346 2°50.583 4.876636 3.006174 30.96665  
2003-01-17 09:16:24 51°15.361 2°50.609 4.843447 3.008384 30.985297  
2003-01-17 09:17:22 51°15.376 2°50.635 4.842176 3.013331 31.037528  
2003-01-17 09:18:24 51°15.378 2°50.686 4.852089 3.011121 31.014  
2003-01-17 09:19:22 51°15.355 2°50.73 4.848938 3.01491 31.048976  
2003-01-17 09:20:23 51°15.322 2°50.754 4.841109 3.01291 31.031921  
2003-01-17 09:21:22 51°15.302 2°50.771 4.835109 3.005437 30.959077  
2003-01-17 09:22:22 51°15.293 2°50.792 4.831753 3.007542 30.98141  
2003-01-17 09:23:22 51°15.287 2°50.812 4.83033 3.006911 30.975035  
2003-01-17 09:24:22 51°15.262 2°50.827 4.82855 3.008279 30.992238  
2003-01-17 09:25:22 51°15.22 2°50.829 4.871809 3.007332 30.986339  
2003-01-17 09:26:23 51°15.175 2°50.817 4.822295 3.006806 30.985231  
2003-01-17 09:27:22 51°15.13 2°50.802 4.821176 3.005437 30.972094  
2003-01-17 09:28:24 51°15.084 2°50.774 4.812326 3.003332 30.953006  
2003-01-17 09:29:22 51°15.044 2°50.738 4.811004 3.001122 30.931903  
2003-01-17 09:30:24 51°15.002 2°50.696 4.851225 3.000069 30.921544  
2003-01-17 09:31:24 51°14.966 2°50.652 4.848023 2.999648 30.918375  
2003-01-17 09:32:22 51°14.934 2°50.6 4.839634 2.99828 30.905232  
2003-01-17 09:33:23 51°14.905 2°50.535 4.840041 2.992912 30.8506  
2003-01-17 09:34:22 51°14.883 2°50.468 4.808206 2.994491 30.864521  
2003-01-17 09:35:24 51°14.864 2°50.392 4.806782 2.99649 30.882421  
2003-01-17 09:36:22 51°14.859 2°50.322 4.854021 2.997648 30.89804  
2003-01-17 09:37:23 51°14.865 2°50.254 4.822091 2.998806 30.900663  
2003-01-17 09:38:22 51°14.881 2°50.187 4.820566 2.998806 30.899039  
2003-01-17 09:39:24 51°14.908 2°50.118 4.829516 3.000806 30.919368  
2003-01-17 09:40:22 51°14.944 2°50.06 4.846294 3.005963 30.967507  
2003-01-17 09:41:22 51°14.989 2°50.017 4.947225 3.010595 31.005568  
2003-01-17 09:42:24 51°15.037 2°49.99 4.879228 3.015857 31.044274  
2003-01-17 09:43:23 51°15.085 2°49.973 4.926311 3.018384 31.06649  
2003-01-17 09:44:22 51°15.135 2°49.961 4.904475 3.020699 31.083045  
2003-01-17 09:45:23 51°15.184 2°49.951 4.923518 3.027962 31.144416  
2003-01-17 09:46:24 51°15.233 2°49.945 4.979193 3.031646 31.174863  
2003-01-17 09:47:23 51°15.285 2°49.953 4.990453 3.039436 31.238044  
2003-01-17 09:48:22 51°15.336 2°49.983 5.008152 3.052383 31.344164  
2003-01-17 09:49:22 51°15.381 2°50.041 5.017785 3.057541 31.388782  
2003-01-17 09:50:22 51°15.411 2°50.112 5.072059 3.061436 31.420682  
2003-01-17 09:51:22 51°15.432 2°50.182 5.028076 3.063331 31.432336  
2003-01-17 09:52:23 51°15.448 2°50.252 5.026961 3.063647 31.439202  
2003-01-17 09:53:24 51°15.463 2°50.32 5.026606 3.064068 31.443979  
2003-01-17 09:54:22 51°15.475 2°50.386 5.026657 3.063541 31.435545  
2003-01-17 09:55:22 51°15.48 2°50.458 5.025339 3.062804 31.431287  
2003-01-17 09:56:22 51°15.481 2°50.531 5.021689 3.06312 31.434871  
2003-01-17 09:57:22 51°15.474 2°50.597 5.061522 3.061962 31.425014  
2003-01-17 09:58:22 51°15.45 2°50.631 5.01302 3.061647 31.426353  
2003-01-17 09:59:22 51°15.412 2°50.607 4.972039 3.055752 31.376668  
2003-01-17 10:00:24 51°15.378 2°50.553 4.951133 3.044067 31.280025  
2003-01-17 10:01:22 51°15.367 2°50.481 4.986649 3.03912 31.236909  
2003-01-17 10:02:22 51°15.378 2°50.413 4.970365 3.039225 31.240558  
2003-01-17 10:03:24 51°15.407 2°50.337 6.328941 3.050699 31.329957  
2003-01-17 10:04:23 51°15.449 2°50.294 5.041508 3.058173 31.391031  
2003-01-17 10:05:22 51°15.49 2°50.263 5.055747 3.062804 31.419803  
2003-01-17 10:06:24 51°15.534 2°50.238 5.066234 3.068699 31.472715  
2003-01-17 10:07:24 51°15.575 2°50.216 5.073832 3.07491 31.534936  
2003-01-17 10:08:22 51°15.619 2°50.201 5.112418 3.077016 31.553055  
2003-01-17 10:09:23 51°15.666 2°50.184 5.074845 3.077542 31.559847  
2003-01-17 10:10:22 51°15.717 2°50.173 5.106545 3.078595 31.571786  
2003-01-17 10:11:23 51°15.776 2°50.182 5.059648 3.079858 31.596823  
2003-01-17 10:12:24 51°15.831 2°50.21 5.052504 3.082806 31.63522  
2003-01-17 10:13:22 51°15.881 2°50.251 5.047133 3.081332 31.620969  
2003-01-17 10:14:23 51°15.928 2°50.315 5.038365 3.078595 31.594853  
2003-01-17 10:15:22 51°15.967 2°50.399 5.06821 3.079016 31.608705  
2003-01-17 10:16:22 51°15.993 2°50.495 5.019306 3.076174 31.583033  
2003-01-17 10:17:22 51°16.009 2°50.589 5.0484 3.072279 31.549522  
2003-01-17 10:18:22 51°16.021 2°50.686 5.040899 3.071332 31.54453  
2003-01-17 10:19:24 51°16.029 2°50.784 4.993091 3.072069 31.559495  
2003-01-17 10:20:24 51°16.033 2°50.876 4.990555 3.069858 31.540152  
2003-01-17 10:21:24 51°16.038 2°50.965 4.987004 3.06891 31.529388  
2003-01-17 10:22:24 51°16.041 2°51.052 4.990808 3.069332 31.534996  
2003-01-17 10:23:24 51°16.042 2°51.139 5.040899 3.069121 31.530132  
2003-01-17 10:24:24 51°16.045 2°51.218 5.00587 3.072174 31.559042  
2003-01-17 10:25:23 51°16.051 2°51.287 5.094495 3.071963 31.551704  
2003-01-17 10:26:23 51°16.065 2°51.348 5.010992 3.072384 31.549069  
2003-01-17 10:27:24 51°16.08 2°51.411 5.009369 3.071121 31.534725  
2003-01-17 10:28:23 51°16.068 2°51.476 5.012006 3.071331 31.537116  
2003-01-17 10:29:24 51°16.045 2°51.471 5.016974 3.071226 31.529333  
2003-01-17 10:30:22 51°16.01 2°51.407 5.112823 3.0707 31.525004  
2003-01-17 10:31:24 51°15.955 2°51.321 5.03644 3.073332 31.545822  
2003-01-17 10:32:24 51°15.897 2°51.23 5.049109 3.075016 31.55588  
2003-01-17 10:33:22 51°15.83 2°51.161 5.059192 3.078174 31.578537  
2003-01-17 10:34:24 51°15.768 2°51.069 5.071046 3.079648 31.585372  
2003-01-17 10:35:22 51°15.716 2°50.978 5.104723 3.076595 31.547457  
2003-01-17 10:36:24 51°15.647 2°50.871 5.098293 3.071857 31.499494  
2003-01-17 10:37:22 51°15.568 2°50.743 5.091457 3.069015 31.472192  
2003-01-17 10:38:23 51°15.483 2°50.601 5.042623 3.065646 31.442197  
2003-01-17 10:39:24 51°15.397 2°50.458 5.068767 3.061646 31.40585  
2003-01-17 10:40:24 51°15.312 2°50.319 5.012868 3.055857 31.351649  
2003-01-17 10:41:23 51°15.228 2°50.182 5.039784 3.051751 31.317351  
2003-01-17 10:42:23 51°15.144 2°50.04 4.963871 3.044277 31.25625  
2003-01-17 10:43:22 51°15.063 2°49.9 4.936718 3.034172 31.169288  
2003-01-17 10:44:23 51°14.977 2°49.754 4.911738 3.027857 31.121202  
2003-01-17 10:45:24 51°14.888 2°49.609 4.886239 3.021015 31.067899  
2003-01-17 10:46:24 51°14.795 2°49.472 4.871657 3.015541 31.021963  
2003-01-17 10:47:23 51°14.704 2°49.334 4.94352 3.010384 30.97796  
2003-01-17 10:48:24 51°14.624 2°49.215 4.89325 3.0087 30.969374  
2003-01-17 10:49:24 51°14.581 2°49.163 4.848582 3.005647 30.937908  
2003-01-17 10:50:24 51°14.562 2°49.132 4.843803 3.004805 30.931579  
2003-01-17 10:51:22 51°14.578 2°49.089 4.845583 3.004174 30.929267  
2003-01-17 10:52:22 51°14.618 2°49.048 4.899294 3.006595 30.954368  
2003-01-17 10:53:22 51°14.675 2°49.021 4.876687 3.010594 30.985231  
2003-01-17 10:54:24 51°14.748 2°49.023 4.913769 3.015436 31.022393  
2003-01-17 10:55:24 51°14.827 2°49.067 4.966002 3.025646 31.096094  
2003-01-17 10:56:22 51°14.888 2°49.164 4.995424 3.039962 31.214616  
2003-01-17 10:57:24 51°14.917 2°49.291 5.043332 3.045225 31.253932  
2003-01-17 10:58:22 51°14.923 2°49.404 4.992837 3.045014 31.246646  
2003-01-17 10:59:24 51°14.917 2°49.512 4.970162 3.041225 31.224871  
2003-01-17 11:00:22 51°14.905 2°49.596 5.01814 3.031646 31.136533  
2003-01-17 11:01:24 51°14.89 2°49.665 4.981932 3.024699 31.086962  
2003-01-17 11:02:24 51°14.874 2°49.716 4.880447 3.017857 31.041777  
2003-01-17 11:03:24 51°14.86 2°49.746 4.865762 3.012068 30.989793  
2003-01-17 11:04:24 51°14.858 2°49.743 4.858951 3.010279 30.984078  
2003-01-17 11:05:22 51°14.879 2°49.715 4.901478 3.009226 30.976985  
2003-01-17 11:06:22 51°14.915 2°49.677 4.916663 3.010805 30.984373  
2003-01-17 11:07:22 51°14.965 2°49.641 4.902342 3.01491 31.019663  
2003-01-17 11:08:24 51°15.031 2°49.62 4.951894 3.024173 31.095641  
2003-01-17 11:09:24 51°15.104 2°49.615 4.993801 3.038172 31.204096  
2003-01-17 11:10:24 51°15.183 2°49.643 5.06213 3.047856 31.282156  
2003-01-17 11:11:24 51°15.255 2°49.727 5.03644 3.056172 31.351957  
2003-01-17 11:12:24 51°15.294 2°49.848 5.043281 3.060172 31.385041  
2003-01-17 11:13:24 51°15.308 2°49.969 5.083354 3.061436 31.392812  
2003-01-17 11:14:24 51°15.304 2°50.075 5.035223 3.060067 31.381391  
2003-01-17 11:15:22 51°15.293 2°50.165 5.022044 3.05712 31.356154  
2003-01-17 11:16:24 51°15.277 2°50.242 5.008 3.052804 31.321931  
2003-01-17 11:17:22 51°15.262 2°50.297 5.02544 3.047225 31.270088  
2003-01-17 11:18:24 51°15.247 2°50.33 4.954939 3.040172 31.217005  
2003-01-17 11:19:22 51°15.246 2°50.329 4.941337 3.033541 31.167825  
2003-01-17 11:20:24 51°15.267 2°50.301 4.94484 3.029857 31.13903  
2003-01-17 11:21:23 51°15.303 2°50.268 4.972395 3.03312 31.164675  
2003-01-17 11:22:24 51°15.349 2°50.238 5.000343 3.042067 31.237695  
2003-01-17 11:23:23 51°15.412 2°50.22 5.023615 3.049856 31.296673  
2003-01-17 11:24:24 51°15.487 2°50.227 5.043889 3.057751 31.369866  
2003-01-17 11:25:24 51°15.562 2°50.282 5.139191 3.062067 31.401612  
2003-01-17 11:26:24 51°15.618 2°50.388 5.063144 3.065646 31.428259  
2003-01-17 11:27:22 51°15.644 2°50.507 5.066437 3.067331 31.440793  
2003-01-17 11:28:24 51°15.647 2°50.628 5.062688 3.067436 31.441986  
2003-01-17 11:29:24 51°15.639 2°50.73 5.057723 3.06691 31.43766  
2003-01-17 11:30:23 51°15.623 2°50.81 5.051541 3.063541 31.406033  
2003-01-17 11:31:22 51°15.596 2°50.868 5.038011 3.061646 31.392742  
2003-01-17 11:32:24 51°15.558 2°50.861 5.021537 3.056593 31.351004  
2003-01-17 11:33:22 51°15.52 2°50.797 5.011701 3.051856 31.314456  
2003-01-17 11:34:24 51°15.437 2°50.712 4.99796 3.048593 31.283161  
2003-01-17 11:35:23 51°15.342 2°50.608 4.967778 3.043014 31.237015  
2003-01-17 11:36:22 51°15.266 2°50.464 4.934281 3.032699 31.155002  
2003-01-17 11:37:24 51°15.177 2°50.316 4.920929 3.027857 31.120387  
2003-01-17 11:38:24 51°15.084 2°50.177 4.899752 3.023331 31.083629  
2003-01-17 11:39:23 51°15.004 2°50.025 4.889236 3.018383 31.046131  
2003-01-17 11:40:23 51°14.929 2°49.858 4.889897 3.017541 31.04307  
2003-01-17 11:41:22 51°14.846 2°49.706 4.892589 3.018068 31.047425  
2003-01-17 11:42:24 51°14.768 2°49.535 4.945601 3.018804 31.047662  
2003-01-17 11:43:24 51°14.703 2°49.369 4.955244 3.021962 31.075408  
2003-01-17 11:44:23 51°14.657 2°49.316 4.924026 3.023541 31.086021  
2003-01-17 11:45:23 51°14.632 2°49.332 4.961181 3.024173 31.085054  
2003-01-17 11:46:23 51°14.621 2°49.375 4.917577 3.023857 31.08798  
2003-01-17 11:47:23 51°14.613 2°49.415 4.918898 3.023331 31.085258  
2003-01-17 11:48:22 51°14.573 2°49.434 4.91189 3.023225 31.079991  
2003-01-17 11:49:24 51°14.528 2°49.406 4.900463 3.021646 31.072634  
2003-01-17 11:50:24 51°14.484 2°49.373 4.894215 3.019015 31.050868  
2003-01-17 11:51:24 51°14.442 2°49.335 4.88883 3.017015 31.033019  
2003-01-17 11:52:22 51°14.409 2°49.291 4.884563 3.015226 31.02  
2003-01-17 11:53:23 51°14.378 2°49.245 4.926514 3.014594 31.013633  
2003-01-17 11:54:24 51°14.351 2°49.191 4.883953 3.014278 31.013297  
2003-01-17 11:55:22 51°14.328 2°49.137 4.929154 3.013963 31.01052  
2003-01-17 11:56:24 51°14.303 2°49.081 4.888932 3.014805 31.015213  
2003-01-17 11:57:22 51°14.28 2°49.029 4.890049 3.015541 31.021149  
2003-01-17 11:58:23 51°14.256 2°48.968 4.892843 3.016278 31.029525  
2003-01-17 11:59:24 51°14.232 2°48.901 4.978685 3.017015 31.033833  
2003-01-17 12:00:24 51°14.214 2°48.826 4.940525 3.018278 31.044121  
2003-01-17 12:01:24 51°14.21 2°48.747 4.904627 3.019436 31.056467  
2003-01-17 12:02:24 51°14.21 2°48.669 4.911382 3.021225 31.067035  
2003-01-17 12:03:24 51°14.227 2°48.596 4.919253 3.023331 31.090959  
2003-01-17 12:04:24 51°14.271 2°48.557 4.932098 3.026383 31.118314  
2003-01-17 12:05:22 51°14.313 2°48.546 4.943418 3.029751 31.141095  
2003-01-17 12:06:24 51°14.351 2°48.548 4.953772 3.033646 31.175547  
2003-01-17 12:07:24 51°14.382 2°48.552 4.962653 3.03712 31.206021  
2003-01-17 12:08:24 51°14.449 2°48.524 4.994207 3.040278 31.227181  
2003-01-17 12:09:24 51°14.532 2°48.547 4.993344 3.046488 31.273983  
2003-01-17 12:10:24 51°14.599 2°48.615 4.99796 3.045225 31.264551  
2003-01-17 12:11:22 51°14.643 2°48.706 5.075808 3.046593 31.270275  
2003-01-17 12:12:24 51°14.671 2°48.809 4.986091 3.044488 31.25864  
2003-01-17 12:13:24 51°14.694 2°48.909 4.9832 3.043962 31.252666  
2003-01-17 12:14:24 51°14.712 2°49.008 5.010789 3.041435 31.224812  
2003-01-17 12:15:24 51°14.726 2°49.108 4.95839 3.038067 31.206166  
2003-01-17 12:16:24 51°14.739 2°49.212 4.954787 3.035646 31.182758  
2003-01-17 12:17:24 51°14.755 2°49.319 4.946159 3.033962 31.168529  
2003-01-17 12:18:24 51°14.775 2°49.42 4.942657 3.032383 31.154677  
2003-01-17 12:19:23 51°14.792 2°49.513 4.938444 3.030699 31.142073  
2003-01-17 12:20:24 51°14.808 2°49.608 4.93484 3.029751 31.135389  
2003-01-17 12:21:24 51°14.822 2°49.701 4.930626 3.028593 31.123053  
2003-01-17 12:22:24 51°14.841 2°49.793 4.929509 3.027857 31.118758  
2003-01-17 12:23:24 51°14.857 2°49.89 4.926108 3.026172 31.102886  
2003-01-17 12:24:24 51°14.877 2°49.991 4.924381 3.026067 31.101691  
2003-01-17 12:25:24 51°14.901 2°50.096 4.921081 3.02512 31.095001  
2003-01-17 12:26:24 51°14.924 2°50.201 4.917933 3.024488 31.091898  
2003-01-17 12:27:24 51°14.95 2°50.3 4.913058 3.024067 31.086301  
2003-01-17 12:28:24 51°14.975 2°50.399 4.90671 3.022804 31.080906  
2003-01-17 12:29:24 51°14.997 2°50.499 4.904272 3.021015 31.05976  
2003-01-17 12:30:24 51°15.014 2°50.598 4.896145 3.020067 31.057134  
2003-01-17 12:31:24 51°15.03 2°50.697 4.932352 3.018068 31.038474  
2003-01-17 12:32:24 51°15.048 2°50.795 4.924077 3.015857 31.022299  
2003-01-17 12:33:22 51°15.063 2°50.89 4.919456 3.013963 31.003202  
2003-01-17 12:34:24 51°15.074 2°50.987 4.869929 3.01312 31.000947  
2003-01-17 12:35:24 51°15.075 2°51.069 4.906608 3.010279 30.975951  
2003-01-17 12:36:23 51°15.078 2°51.144 4.892183 3.008384 30.960095  
2003-01-17 12:37:24 51°15.085 2°51.206 4.843498 3.003963 30.922002  
2003-01-17 12:38:24 51°15.1 2°51.255 4.8406 3.002174 30.907331  
2003-01-17 12:39:24 51°15.119 2°51.301 4.877094 3.000595 30.894241  
2003-01-17 12:40:24 51°15.134 2°51.364 4.837906 2.999858 30.885049  
2003-01-17 12:41:24 51°15.123 2°51.552 4.816599 2.998911 30.876707  
2003-01-17 12:42:24 51°15.09 2°51.856 4.776304 2.991754 30.822017  
2003-01-17 12:43:24 51°15.056 2°52.184 4.754213 2.981334 30.731731  
2003-01-17 12:44:24 51°15.019 2°52.511 4.72753 2.969756 30.624123  
2003-01-17 12:45:24 51°14.979 2°52.833 4.702924 2.965441 30.594319  
2003-01-17 12:46:24 51°14.938 2°53.154 4.671988 2.952917 30.47978  
2003-01-17 12:47:24 51°14.886 2°53.467 4.670612 2.950075 30.46427  
2003-01-17 12:48:24 51°14.788 2°53.743 4.70644 2.95639 30.527416  
2003-01-17 12:49:24 51°14.697 2°54.03 4.706746 2.967652 30.631607  
2003-01-17 12:50:24 51°14.616 2°54.327 4.692631 2.966704 30.62081  
2003-01-17 12:51:24 51°14.536 2°54.592 4.662964 2.958916 30.554605  
2003-01-17 12:52:22 51°14.446 2°54.825 4.640374 2.941656 30.389948  
2003-01-17 12:53:24 51°14.352 2°55.06 4.590217 2.929869 30.270745